Valor — WDG9853 — position and weather

sailwx.info

Track history (hours):
 
Tides and Currents Weather Stations Pressure Air Temp Water Temp Dewpoint Dewpoint Depression Visibility Wind Speed Wind Dir Waves Ship Positions

Valor

Owner: Enterprise Marine Services, LLC, San Antonio, TX. More information available from US FCC via Universal Licensing System and Coast Guard Vessel Documentation Center.

Last reported at 2018-May-20 23:34 UTC. Time now 2018-May-24 14:08 UTC.
Position N 28°54' W 095°22'.

Length 29 m; draft 3.2 m.

Type: Towing. MMSI: 367591810.

Date/timePositionNaut miles runAvg speedWind from/ knotsBaromVisibWave heightAir tempDewpointWater temp
2018-May-20 23:34N 28°54' W 095°22'1 1.1
2018-May-20 22:35N 28°55' W 095°21'1 4.0
2018-May-20 22:23N 28°55' W 095°20'2 4.3
2018-May-20 22:00N 28°56' W 095°19'3 5.6
2018-May-20 21:30N 28°58' W 095°17'2 3.0
2018-May-20 20:59N 28°59' W 095°15'0 0.2
2018-May-20 20:30N 28°60' W 095°15'0 0.0
2018-May-20 20:00N 28°60' W 095°15'0 0.0
2018-May-20 19:30N 28°60' W 095°15'0 0.0
2018-May-20 18:59N 28°60' W 095°15'0 0.0
2018-May-20 18:30N 28°60' W 095°15'1 1.2
2018-May-20 18:00N 29°00' W 095°15'2 4.0
2018-May-20 17:30N 29°02' W 095°14'2 4.8
2018-May-20 17:00N 29°04' W 095°13'3 5.1
2018-May-20 16:30N 29°06' W 095°12'3 5.6
2018-May-20 16:00N 29°08' W 095°10'3 6.4
2018-May-20 15:30N 29°10' W 095°07'3 6.2
2018-May-20 15:00N 29°12' W 095°04'3 5.6
2018-May-20 14:30N 29°14' W 095°02'3 5.9
2018-May-20 14:00N 29°16' W 094°59'3 6.3
2018-May-20 13:30N 29°17' W 094°56'3 6.3
2018-May-20 13:00N 29°18' W 094°53'4 7.1
2018-May-20 12:30N 29°21' W 094°49'9 6.6
2018-May-20 11:05N 29°30' W 094°52'1 7.2
2018-May-20 10:59N 29°30' W 094°53'3 7.2
2018-May-20 10:30N 29°33' W 094°55'4 7.5
2018-May-20 10:00N 29°36' W 094°57'4 8.1
2018-May-20 09:30N 29°40' W 094°59'2 3.5
2018-May-20 09:00N 29°41' W 095°00'0 0.2
2018-May-20 08:30N 29°41' W 095°00'0 0.0
2018-May-20 08:00N 29°41' W 095°00'0 0.0
2018-May-20 07:30N 29°41' W 095°00'0 0.0
2018-May-20 07:00N 29°41' W 095°00'0 0.0
2018-May-20 06:30N 29°41' W 095°00'0 0.0
2018-May-20 06:00N 29°41' W 095°00'0 0.0
2018-May-20 05:30N 29°41' W 095°00'1 2.0
2018-May-20 05:00N 29°41' W 094°59'1 2.6
2018-May-20 04:30N 29°42' W 095°00'2 3.4
2018-May-20 03:51N 29°44' W 095°02'5 0.2
2018-May-19 05:09N 29°44' W 095°08'1 0.3
2018-May-19 03:20N 29°44' W 095°09'1 2.5
2018-May-19 02:59N 29°45' W 095°10'4 2.9
2018-May-19 01:39N 29°46' W 095°05'1 3.3
2018-May-19 01:29N 29°46' W 095°05'1 0.1
2018-May-18 12:35N 29°47' W 095°05'0 0.0
2018-May-18 11:30N 29°47' W 095°05'0 0.0
2018-May-18 10:57N 29°47' W 095°05'0 0.0
2018-May-18 10:30N 29°47' W 095°05'0 0.0
2018-May-18 10:00N 29°47' W 095°05'0 0.2
2018-May-18 09:30N 29°47' W 095°05'1 1.1
2018-May-18 09:00N 29°47' W 095°04'0 0.5
2018-May-18 08:30N 29°47' W 095°04'1 1.3
2018-May-18 08:00N 29°47' W 095°05'0 0.0
2018-May-18 07:30N 29°47' W 095°05'0 0.0
2018-May-18 07:00N 29°47' W 095°05'0 0.0
2018-May-18 06:30N 29°47' W 095°05'0 0.1
2018-May-18 05:55N 29°47' W 095°05'0 0.0
2018-May-18 05:30N 29°47' W 095°05'0 0.0
2018-May-18 05:00N 29°47' W 095°05'0 0.0
2018-May-18 04:30N 29°47' W 095°05'0 0.0
2018-May-18 04:00N 29°47' W 095°05'0 0.0
2018-May-18 03:28N 29°47' W 095°05'0 0.0
2018-May-18 03:00N 29°47' W 095°05'0 0.0
2018-May-18 02:30N 29°47' W 095°05'0 0.0
2018-May-18 02:00N 29°47' W 095°05'1 0.2
2018-May-17 19:10N 29°46' W 095°05'1 4.8
2018-May-17 18:54N 29°45' W 095°04'1 0.2
2018-May-17 13:51N 29°44' W 095°03'0 0.0
2018-May-17 13:30N 29°44' W 095°03'0 0.0
2018-May-17 13:00N 29°44' W 095°03'0 0.0
2018-May-17 12:30N 29°44' W 095°03'0 0.0
2018-May-17 12:00N 29°44' W 095°03'0 0.0
2018-May-17 11:30N 29°44' W 095°03'0 0.0
2018-May-17 10:57N 29°44' W 095°03'0 0.0
2018-May-17 10:29N 29°44' W 095°03'0 0.0
2018-May-17 10:00N 29°44' W 095°03'0 0.0
2018-May-17 09:30N 29°44' W 095°03'0 0.0
2018-May-17 08:53N 29°44' W 095°03'0 0.0
2018-May-17 08:30N 29°44' W 095°03'0 0.0
2018-May-17 08:00N 29°44' W 095°03'0 0.0
2018-May-17 07:23N 29°44' W 095°03'0 0.0
2018-May-17 06:47N 29°44' W 095°03'0 0.0
2018-May-17 06:26N 29°44' W 095°03'0 0.0
2018-May-17 06:00N 29°44' W 095°03'0 0.0
2018-May-17 05:29N 29°44' W 095°03'0 0.0
2018-May-17 05:00N 29°44' W 095°03'0 0.0
2018-May-17 04:27N 29°44' W 095°03'0 0.0
2018-May-17 04:00N 29°44' W 095°03'0 0.0
2018-May-17 03:30N 29°44' W 095°03'0 0.0
2018-May-17 03:00N 29°44' W 095°03'0 0.0
2018-May-17 02:30N 29°44' W 095°03'0 0.0
2018-May-17 02:00N 29°44' W 095°03'0 0.0
2018-May-17 01:30N 29°44' W 095°03'0 0.0
2018-May-16 23:54N 29°44' W 095°03'0 0.1
2018-May-16 23:30N 29°44' W 095°03'4 0.4
2018-May-16 15:05N 29°47' W 095°05'0 0.0
2018-May-16 14:55N 29°47' W 095°05'0 0.0
2018-May-16 14:29N 29°47' W 095°05'0 0.0
2018-May-16 14:00N 29°47' W 095°05'0 0.0
2018-May-16 13:30N 29°47' W 095°05'0 0.0
2018-May-16 13:00N 29°47' W 095°05'0 0.0
2018-May-16 12:30N 29°47' W 095°05'0 0.0
2018-May-16 12:00N 29°47' W 095°05'0 0.0
2018-May-16 11:30N 29°47' W 095°05'0 0.0
2018-May-16 10:59N 29°47' W 095°05'0 0.0
2018-May-16 10:29N 29°47' W 095°05'0 0.0
2018-May-16 09:59N 29°47' W 095°05'0 0.0
2018-May-16 09:30N 29°47' W 095°05'0 0.0
2018-May-16 09:00N 29°47' W 095°05'0 0.0
2018-May-16 08:30N 29°47' W 095°05'0 0.0
2018-May-16 08:00N 29°47' W 095°05'0 0.0
2018-May-16 07:30N 29°47' W 095°05'0 0.0
2018-May-16 07:00N 29°47' W 095°05'0 0.0
2018-May-16 06:30N 29°47' W 095°05'0 0.0
2018-May-16 06:00N 29°47' W 095°05'0 0.0
2018-May-16 05:30N 29°47' W 095°05'0 0.0
2018-May-16 05:00N 29°47' W 095°05'0 0.0
2018-May-16 04:30N 29°47' W 095°05'0 0.0
2018-May-16 04:00N 29°47' W 095°05'0 0.0
2018-May-16 03:30N 29°47' W 095°05'0 0.0
2018-May-16 03:00N 29°47' W 095°05'0 0.0
2018-May-16 02:30N 29°47' W 095°05'0 0.0
2018-May-16 02:00N 29°47' W 095°05'0 0.0
2018-May-16 01:28N 29°47' W 095°05'1 0.1
2018-May-15 15:02N 29°47' W 095°04'1 2.3
2018-May-15 14:33N 29°46' W 095°05'0 3.6
2018-May-15 14:25N 29°46' W 095°05'2 4.0
2018-May-15 14:00N 29°45' W 095°06'2 3.2
2018-May-15 13:26N 29°44' W 095°08'0 0.0
2018-May-15 12:57N 29°44' W 095°08'0 0.0
2018-May-15 12:30N 29°44' W 095°08'0 0.1
2018-May-15 11:57N 29°44' W 095°08'0 0.0
2018-May-15 11:30N 29°44' W 095°08'0 0.0
2018-May-15 11:00N 29°44' W 095°08'0 0.0
2018-May-15 10:21N 29°44' W 095°08'0 0.0
2018-May-15 09:59N 29°44' W 095°08'0 0.0
2018-May-15 09:30N 29°44' W 095°08'0 0.0
2018-May-15 08:59N 29°44' W 095°08'0 0.0
2018-May-15 08:28N 29°44' W 095°08'0 0.0
2018-May-15 08:00N 29°44' W 095°08'0 0.0
2018-May-15 06:47N 29°44' W 095°08'0 0.0
2018-May-15 06:29N 29°44' W 095°08'0 0.0
2018-May-15 05:56N 29°44' W 095°08'0 0.0
2018-May-15 05:24N 29°44' W 095°08'0 0.0
2018-May-15 04:55N 29°44' W 095°08'0 0.0
2018-May-15 04:29N 29°44' W 095°08'0 0.0
2018-May-15 04:00N 29°44' W 095°08'0 0.0
2018-May-15 03:30N 29°44' W 095°08'0 0.0
2018-May-15 03:00N 29°44' W 095°08'0 0.0
2018-May-15 02:23N 29°44' W 095°08'0 0.0
2018-May-15 01:59N 29°44' W 095°08'0 0.0
2018-May-15 01:30N 29°44' W 095°08'0 0.0
2018-May-15 01:00N 29°44' W 095°08'4 0.4
2018-May-14 14:12N 29°47' W 095°05'0 0.0
2018-May-14 13:55N 29°47' W 095°05'0 0.0
2018-May-14 13:29N 29°47' W 095°05'0 0.0
2018-May-14 12:59N 29°47' W 095°05'0 0.0
2018-May-12 13:33N 29°47' W 095°05'0 0.0
2018-May-12 13:19N 29°47' W 095°05'0 0.0
2018-May-12 12:51N 29°47' W 095°05'0 0.0
2018-May-12 12:28N 29°47' W 095°05'0 0.0
2018-May-11 01:46N 29°47' W 095°05'  
Track history (hours):
 
Tides and Currents Weather Stations Pressure Air Temp Water Temp Dewpoint Dewpoint Depression Visibility Wind Speed Wind Dir Waves Ship Positions

Valor

Owner: Enterprise Marine Services, LLC, San Antonio, TX. More information available from US FCC via Universal Licensing System and Coast Guard Vessel Documentation Center.

Last reported at 2018-May-20 23:34 UTC. Time now 2018-May-24 14:08 UTC.
Position N 28°54' W 095°22'.

Length 29 m; draft 3.2 m.

Type: Towing. MMSI: 367591810.

Date/timePositionNaut miles runAvg speedWind from/ knotsBaromVisibWave heightAir tempDewpointWater temp
2018-May-20 23:34N 28°54' W 095°22'1 1.1
2018-May-20 22:35N 28°55' W 095°21'1 4.0
2018-May-20 22:23N 28°55' W 095°20'2 4.3
2018-May-20 22:00N 28°56' W 095°19'3 5.6
2018-May-20 21:30N 28°58' W 095°17'2 3.0
2018-May-20 20:59N 28°59' W 095°15'0 0.2
2018-May-20 20:30N 28°60' W 095°15'0 0.0
2018-May-20 20:00N 28°60' W 095°15'0 0.0
2018-May-20 19:30N 28°60' W 095°15'0 0.0
2018-May-20 18:59N 28°60' W 095°15'0 0.0
2018-May-20 18:30N 28°60' W 095°15'1 1.2
2018-May-20 18:00N 29°00' W 095°15'2 4.0
2018-May-20 17:30N 29°02' W 095°14'2 4.8
2018-May-20 17:00N 29°04' W 095°13'3 5.1
2018-May-20 16:30N 29°06' W 095°12'3 5.6
2018-May-20 16:00N 29°08' W 095°10'3 6.4
2018-May-20 15:30N 29°10' W 095°07'3 6.2
2018-May-20 15:00N 29°12' W 095°04'3 5.6
2018-May-20 14:30N 29°14' W 095°02'3 5.9
2018-May-20 14:00N 29°16' W 094°59'3 6.3
2018-May-20 13:30N 29°17' W 094°56'3 6.3
2018-May-20 13:00N 29°18' W 094°53'4 7.1
2018-May-20 12:30N 29°21' W 094°49'9 6.6
2018-May-20 11:05N 29°30' W 094°52'1 7.2
2018-May-20 10:59N 29°30' W 094°53'3 7.2
2018-May-20 10:30N 29°33' W 094°55'4 7.5
2018-May-20 10:00N 29°36' W 094°57'4 8.1
2018-May-20 09:30N 29°40' W 094°59'2 3.5
2018-May-20 09:00N 29°41' W 095°00'0 0.2
2018-May-20 08:30N 29°41' W 095°00'0 0.0
2018-May-20 08:00N 29°41' W 095°00'0 0.0
2018-May-20 07:30N 29°41' W 095°00'0 0.0
2018-May-20 07:00N 29°41' W 095°00'0 0.0
2018-May-20 06:30N 29°41' W 095°00'0 0.0
2018-May-20 06:00N 29°41' W 095°00'0 0.0
2018-May-20 05:30N 29°41' W 095°00'1 2.0
2018-May-20 05:00N 29°41' W 094°59'1 2.6
2018-May-20 04:30N 29°42' W 095°00'2 3.4
2018-May-20 03:51N 29°44' W 095°02'5 0.2
2018-May-19 05:09N 29°44' W 095°08'1 0.3
2018-May-19 03:20N 29°44' W 095°09'1 2.5
2018-May-19 02:59N 29°45' W 095°10'4 2.9
2018-May-19 01:39N 29°46' W 095°05'1 3.3
2018-May-19 01:29N 29°46' W 095°05'1 0.1
2018-May-18 12:35N 29°47' W 095°05'0 0.0
2018-May-18 11:30N 29°47' W 095°05'0 0.0
2018-May-18 10:57N 29°47' W 095°05'0 0.0
2018-May-18 10:30N 29°47' W 095°05'0 0.0
2018-May-18 10:00N 29°47' W 095°05'0 0.2
2018-May-18 09:30N 29°47' W 095°05'1 1.1
2018-May-18 09:00N 29°47' W 095°04'0 0.5
2018-May-18 08:30N 29°47' W 095°04'1 1.3
2018-May-18 08:00N 29°47' W 095°05'0 0.0
2018-May-18 07:30N 29°47' W 095°05'0 0.0
2018-May-18 07:00N 29°47' W 095°05'0 0.0
2018-May-18 06:30N 29°47' W 095°05'0 0.1
2018-May-18 05:55N 29°47' W 095°05'0 0.0
2018-May-18 05:30N 29°47' W 095°05'0 0.0
2018-May-18 05:00N 29°47' W 095°05'0 0.0
2018-May-18 04:30N 29°47' W 095°05'0 0.0
2018-May-18 04:00N 29°47' W 095°05'0 0.0
2018-May-18 03:28N 29°47' W 095°05'0 0.0
2018-May-18 03:00N 29°47' W 095°05'0 0.0
2018-May-18 02:30N 29°47' W 095°05'0 0.0
2018-May-18 02:00N 29°47' W 095°05'1 0.2
2018-May-17 19:10N 29°46' W 095°05'1 4.8
2018-May-17 18:54N 29°45' W 095°04'1 0.2
2018-May-17 13:51N 29°44' W 095°03'0 0.0
2018-May-17 13:30N 29°44' W 095°03'0 0.0
2018-May-17 13:00N 29°44' W 095°03'0 0.0
2018-May-17 12:30N 29°44' W 095°03'0 0.0
2018-May-17 12:00N 29°44' W 095°03'0 0.0
2018-May-17 11:30N 29°44' W 095°03'0 0.0
2018-May-17 10:57N 29°44' W 095°03'0 0.0
2018-May-17 10:29N 29°44' W 095°03'0 0.0
2018-May-17 10:00N 29°44' W 095°03'0 0.0
2018-May-17 09:30N 29°44' W 095°03'0 0.0
2018-May-17 08:53N 29°44' W 095°03'0 0.0
2018-May-17 08:30N 29°44' W 095°03'0 0.0
2018-May-17 08:00N 29°44' W 095°03'0 0.0
2018-May-17 07:23N 29°44' W 095°03'0 0.0
2018-May-17 06:47N 29°44' W 095°03'0 0.0
2018-May-17 06:26N 29°44' W 095°03'0 0.0
2018-May-17 06:00N 29°44' W 095°03'0 0.0
2018-May-17 05:29N 29°44' W 095°03'0 0.0
2018-May-17 05:00N 29°44' W 095°03'0 0.0
2018-May-17 04:27N 29°44' W 095°03'0 0.0
2018-May-17 04:00N 29°44' W 095°03'0 0.0
2018-May-17 03:30N 29°44' W 095°03'0 0.0
2018-May-17 03:00N 29°44' W 095°03'0 0.0
2018-May-17 02:30N 29°44' W 095°03'0 0.0
2018-May-17 02:00N 29°44' W 095°03'0 0.0
2018-May-17 01:30N 29°44' W 095°03'0 0.0
2018-May-16 23:54N 29°44' W 095°03'0 0.1
2018-May-16 23:30N 29°44' W 095°03'4 0.4
2018-May-16 15:05N 29°47' W 095°05'0 0.0
2018-May-16 14:55N 29°47' W 095°05'0 0.0
2018-May-16 14:29N 29°47' W 095°05'0 0.0
2018-May-16 14:00N 29°47' W 095°05'0 0.0
2018-May-16 13:30N 29°47' W 095°05'0 0.0
2018-May-16 13:00N 29°47' W 095°05'0 0.0
2018-May-16 12:30N 29°47' W 095°05'0 0.0
2018-May-16 12:00N 29°47' W 095°05'0 0.0
2018-May-16 11:30N 29°47' W 095°05'0 0.0
2018-May-16 10:59N 29°47' W 095°05'0 0.0
2018-May-16 10:29N 29°47' W 095°05'0 0.0
2018-May-16 09:59N 29°47' W 095°05'0 0.0
2018-May-16 09:30N 29°47' W 095°05'0 0.0
2018-May-16 09:00N 29°47' W 095°05'0 0.0
2018-May-16 08:30N 29°47' W 095°05'0 0.0
2018-May-16 08:00N 29°47' W 095°05'0 0.0
2018-May-16 07:30N 29°47' W 095°05'0 0.0
2018-May-16 07:00N 29°47' W 095°05'0 0.0
2018-May-16 06:30N 29°47' W 095°05'0 0.0
2018-May-16 06:00N 29°47' W 095°05'0 0.0
2018-May-16 05:30N 29°47' W 095°05'0 0.0
2018-May-16 05:00N 29°47' W 095°05'0 0.0
2018-May-16 04:30N 29°47' W 095°05'0 0.0
2018-May-16 04:00N 29°47' W 095°05'0 0.0
2018-May-16 03:30N 29°47' W 095°05'0 0.0
2018-May-16 03:00N 29°47' W 095°05'0 0.0
2018-May-16 02:30N 29°47' W 095°05'0 0.0
2018-May-16 02:00N 29°47' W 095°05'0 0.0
2018-May-16 01:28N 29°47' W 095°05'1 0.1
2018-May-15 15:02N 29°47' W 095°04'1 2.3
2018-May-15 14:33N 29°46' W 095°05'0 3.6
2018-May-15 14:25N 29°46' W 095°05'2 4.0
2018-May-15 14:00N 29°45' W 095°06'2 3.2
2018-May-15 13:26N 29°44' W 095°08'0 0.0
2018-May-15 12:57N 29°44' W 095°08'0 0.0
2018-May-15 12:30N 29°44' W 095°08'0 0.1
2018-May-15 11:57N 29°44' W 095°08'0 0.0
2018-May-15 11:30N 29°44' W 095°08'0 0.0
2018-May-15 11:00N 29°44' W 095°08'0 0.0
2018-May-15 10:21N 29°44' W 095°08'0 0.0
2018-May-15 09:59N 29°44' W 095°08'0 0.0
2018-May-15 09:30N 29°44' W 095°08'0 0.0
2018-May-15 08:59N 29°44' W 095°08'0 0.0
2018-May-15 08:28N 29°44' W 095°08'0 0.0
2018-May-15 08:00N 29°44' W 095°08'0 0.0
2018-May-15 06:47N 29°44' W 095°08'0 0.0
2018-May-15 06:29N 29°44' W 095°08'0 0.0
2018-May-15 05:56N 29°44' W 095°08'0 0.0
2018-May-15 05:24N 29°44' W 095°08'0 0.0
2018-May-15 04:55N 29°44' W 095°08'0 0.0
2018-May-15 04:29N 29°44' W 095°08'0 0.0
2018-May-15 04:00N 29°44' W 095°08'0 0.0
2018-May-15 03:30N 29°44' W 095°08'0 0.0
2018-May-15 03:00N 29°44' W 095°08'0 0.0
2018-May-15 02:23N 29°44' W 095°08'0 0.0
2018-May-15 01:59N 29°44' W 095°08'0 0.0
2018-May-15 01:30N 29°44' W 095°08'0 0.0
2018-May-15 01:00N 29°44' W 095°08'4 0.4
2018-May-14 14:12N 29°47' W 095°05'0 0.0
2018-May-14 13:55N 29°47' W 095°05'0 0.0
2018-May-14 13:29N 29°47' W 095°05'0 0.0
2018-May-14 12:59N 29°47' W 095°05'0 0.0
2018-May-12 13:33N 29°47' W 095°05'0 0.0
2018-May-12 13:19N 29°47' W 095°05'0 0.0
2018-May-12 12:51N 29°47' W 095°05'0 0.0
2018-May-12 12:28N 29°47' W 095°05'0 0.0
2018-May-11 01:46N 29°47' W 095°05'  

Dump ship's entire track history